createdAt,value
2022-08-01T00:00:19.981Z,1.40
2022-08-01T00:02:53.080Z,1.40
2022-08-01T00:05:23.654Z,1.45
2022-08-01T00:07:53.948Z,1.17
2022-08-01T00:10:25.386Z,1.40
2022-08-01T00:12:55.620Z,1.63
2022-08-01T00:15:25.880Z,1.27
2022-08-01T00:17:58.648Z,1.50
2022-08-01T00:20:29.200Z,1.17
2022-08-01T00:23:03.160Z,1.67
2022-08-01T00:25:34.782Z,1.30
2022-08-01T00:28:05.540Z,1.58
2022-08-01T00:30:35.859Z,1.52
2022-08-01T00:33:08.912Z,1.40
2022-08-01T00:35:39.411Z,1.50
2022-08-01T00:38:09.563Z,1.48
2022-08-01T00:40:39.860Z,1.50
2022-08-01T00:43:09.996Z,1.73
2022-08-01T00:45:40.321Z,1.83
2022-08-01T00:48:13.336Z,1.80
2022-08-01T00:50:44.189Z,1.40
2022-08-01T00:53:18.979Z,1.70
2022-08-01T00:55:50.997Z,1.67
2022-08-01T00:58:21.600Z,1.70
2022-08-01T01:00:54.834Z,1.60
2022-08-01T01:03:56.314Z,1.70
2022-08-01T01:06:34.749Z,1.60
2022-08-01T01:09:25.732Z,1.77
2022-08-01T01:12:15.162Z,1.73
2022-08-01T01:14:56.068Z,1.58
2022-08-01T01:17:49.941Z,1.70
2022-08-01T01:20:34.063Z,1.80
2022-08-01T01:23:35.158Z,1.80
2022-08-01T01:26:35.658Z,1.55
2022-08-01T01:29:15.354Z,1.77
2022-08-01T01:31:52.498Z,1.73
2022-08-01T01:34:25.904Z,1.50
2022-08-01T01:37:01.948Z,1.60
2022-08-01T01:39:34.713Z,1.95
2022-08-01T01:42:09.453Z,1.70
2022-08-01T01:44:48.217Z,1.80
2022-08-01T01:47:21.182Z,1.80
2022-08-01T01:49:53.483Z,2.17
2022-08-01T01:52:26.170Z,1.67
2022-08-01T01:55:00.091Z,1.70
2022-08-01T01:57:34.960Z,1.55
2022-08-01T02:00:10.152Z,1.50
2022-08-01T02:02:41.484Z,1.85
2022-08-01T02:05:15.259Z,1.75
2022-08-01T02:07:48.580Z,1.50
2022-08-01T02:10:22.066Z,1.67
2022-08-01T02:13:04.175Z,1.80
2022-08-01T02:16:00.175Z,1.80
2022-08-01T02:18:31.301Z,1.88
2022-08-01T02:21:05.048Z,1.90
2022-08-01T02:23:40.202Z,1.95
2022-08-01T02:26:19.684Z,2.10
2022-08-01T02:28:57.113Z,2.30
2022-08-01T02:31:32.416Z,2.15
2022-08-01T02:34:09.860Z,1.90
2022-08-01T02:36:42.359Z,2.10
2022-08-01T02:39:17.399Z,1.95
2022-08-01T02:41:52.095Z,1.88
2022-08-01T02:44:30.838Z,1.70
2022-08-01T02:47:06.959Z,1.73
2022-08-01T02:49:53.750Z,2.15
2022-08-01T02:52:29.088Z,1.95
2022-08-01T02:55:02.531Z,2.17
2022-08-01T02:57:51.801Z,1.98
2022-08-01T03:00:24.850Z,2.10
2022-08-01T03:03:00.292Z,1.70
2022-08-01T03:05:31.413Z,1.60
2022-08-01T03:08:04.364Z,2.05
2022-08-01T03:10:47.012Z,2.03
2022-08-01T03:13:20.535Z,2.13
2022-08-01T03:15:53.287Z,2.20
2022-08-01T03:18:29.792Z,2.30
2022-08-01T03:21:03.682Z,2.55
2022-08-01T03:23:38.050Z,2.05
2022-08-01T03:26:09.995Z,2.47
2022-08-01T03:28:44.059Z,2.30
2022-08-01T03:31:17.948Z,2.30
2022-08-01T03:33:50.817Z,2.45
2022-08-01T03:36:29.254Z,2.28
2022-08-01T03:39:04.941Z,2.60
2022-08-01T03:41:44.506Z,2.47
2022-08-01T03:44:40.047Z,2.90
2022-08-01T03:47:14.098Z,2.60
2022-08-01T03:49:49.671Z,2.90
2022-08-01T03:52:20.859Z,3.05
2022-08-01T03:54:54.407Z,2.70
2022-08-01T03:57:35.955Z,2.88
2022-08-01T04:00:10.625Z,3.10
2022-08-01T04:53:18.604Z,3.92
2022-08-01T04:55:49.881Z,3.90
2022-08-01T04:58:20.263Z,3.85
2022-08-01T05:00:50.635Z,3.53
2022-08-01T05:03:21.094Z,3.65
2022-08-01T05:05:51.403Z,3.75
2022-08-01T05:08:24.346Z,3.60
2022-08-01T05:10:54.515Z,3.55
2022-08-01T05:13:24.832Z,3.95
2022-08-01T05:15:55.003Z,3.88
2022-08-01T05:18:26.207Z,3.72
2022-08-01T05:20:58.699Z,3.88
2022-08-01T05:23:42.293Z,4.18
2022-08-01T05:26:15.036Z,3.90
2022-08-01T05:28:46.287Z,4.63
2022-08-01T05:31:16.530Z,5.07
2022-08-01T05:33:47.464Z,5.00
2022-08-01T05:36:17.835Z,4.68
2022-08-01T05:38:50.901Z,5.30
2022-08-01T05:41:21.124Z,5.13
2022-08-01T05:43:51.455Z,7.00
2022-08-01T05:46:21.698Z,5.68
2022-08-01T05:48:54.004Z,6.22
2022-08-01T05:51:24.189Z,4.65
2022-08-01T05:54:15.664Z,12.10
2022-08-01T05:56:45.867Z,11.20
2022-08-01T05:59:16.193Z,7.93
2022-08-01T06:01:46.631Z,7.40
2022-08-01T06:04:18.311Z,7.47
2022-08-01T06:06:48.536Z,7.78
2022-08-01T06:09:21.537Z,10.05
2022-08-01T06:11:51.835Z,7.07
2022-08-01T06:14:22.653Z,7.53
2022-08-01T06:16:52.808Z,8.10
2022-08-01T06:19:23.218Z,8.57
2022-08-01T06:21:53.366Z,9.23
2022-08-01T06:24:26.764Z,10.10
2022-08-01T06:26:56.963Z,11.88
2022-08-01T06:29:27.262Z,11.45
2022-08-01T06:32:01.391Z,13.55
2022-08-01T06:34:31.650Z,13.75
2022-08-01T06:37:01.981Z,17.13
2022-08-01T06:39:39.996Z,14.07
2022-08-01T06:42:10.492Z,17.05
2022-08-01T06:44:40.744Z,12.70
2022-08-01T06:47:11.073Z,10.95
2022-08-01T06:49:41.281Z,11.13
2022-08-01T06:52:11.554Z,10.45
2022-08-01T06:54:44.509Z,10.48
2022-08-01T06:57:14.642Z,11.82
2022-08-01T06:59:54.408Z,11.73
2022-08-01T07:02:25.648Z,13.18
2022-08-01T07:04:56.044Z,12.00
2022-08-01T07:07:26.229Z,11.85
2022-08-01T07:09:59.838Z,10.38
2022-08-01T07:12:30.083Z,9.63
2022-08-01T07:15:00.398Z,8.32
2022-08-01T07:17:30.748Z,9.68
2022-08-01T07:20:00.987Z,10.20
2022-08-01T07:22:32.006Z,11.38
2022-08-01T07:25:12.357Z,9.60
2022-08-01T07:27:42.531Z,9.70
2022-08-01T07:30:14.339Z,8.02
2022-08-01T07:32:44.604Z,7.50
2022-08-01T07:35:14.940Z,7.93
2022-08-01T07:37:48.747Z,8.10
2022-08-01T07:40:23.038Z,9.32
2022-08-01T07:42:53.185Z,11.57
2022-08-01T07:45:23.634Z,13.20
2022-08-01T07:47:53.855Z,14.93
2022-08-01T07:50:24.068Z,12.30
2022-08-01T07:52:54.288Z,8.57
2022-08-01T07:55:27.510Z,7.63
2022-08-01T07:57:57.791Z,7.55
2022-08-01T08:00:28.655Z,6.57
2022-08-01T08:03:00.330Z,6.25
2022-08-01T08:05:58.786Z,9.85
2022-08-01T08:08:21.392Z,8.27
2022-08-01T08:10:54.986Z,7.47
2022-08-01T08:13:25.361Z,6.50
2022-08-01T08:15:55.738Z,7.25
2022-08-01T08:18:28.533Z,7.65
2022-08-01T08:21:01.316Z,6.43
2022-08-01T08:23:46.060Z,6.35
2022-08-01T08:26:19.031Z,7.18
2022-08-01T08:28:49.189Z,6.80
2022-08-01T08:31:25.070Z,6.95
2022-08-01T08:33:56.817Z,6.25
2022-08-01T08:36:31.105Z,6.63
2022-08-01T08:39:02.320Z,6.07
2022-08-01T08:41:38.099Z,5.43
2022-08-01T08:44:11.892Z,5.07
2022-08-01T08:46:46.588Z,4.53
2022-08-01T08:49:22.384Z,4.07
2022-08-01T08:51:55.922Z,4.03
2022-08-01T08:54:31.188Z,4.15
2022-08-01T08:57:05.596Z,4.40
2022-08-01T08:59:35.778Z,3.60
2022-08-01T09:02:08.246Z,4.00
2022-08-01T09:04:41.084Z,3.95
2022-08-01T09:07:12.906Z,3.00
2022-08-01T09:09:43.035Z,3.72
2022-08-01T09:12:21.403Z,3.40
2022-08-01T09:14:54.499Z,3.38
2022-08-01T09:17:24.965Z,3.65
2022-08-01T09:19:59.229Z,3.20
2022-08-01T09:22:29.671Z,2.90
2022-08-01T09:25:18.453Z,3.35
2022-08-01T09:27:51.600Z,2.90
2022-08-01T09:30:26.187Z,2.72
2022-08-01T09:32:58.906Z,3.00
2022-08-01T09:35:43.187Z,2.88
2022-08-01T09:38:22.981Z,2.75
2022-08-01T09:40:58.346Z,3.00
2022-08-01T09:43:33.953Z,2.67
2022-08-01T09:46:13.070Z,3.38
2022-08-01T09:48:59.054Z,2.22
2022-08-01T09:51:59.157Z,3.50
2022-08-01T09:54:34.774Z,4.18
2022-08-01T09:57:17.731Z,3.90
2022-08-01T09:59:58.707Z,4.43
2022-08-01T10:02:40.104Z,4.20
2022-08-01T10:05:18.803Z,3.75
2022-08-01T10:08:07.924Z,3.60
2022-08-01T10:10:38.791Z,4.57
2022-08-01T10:13:10.054Z,5.10
2022-08-01T10:15:44.037Z,4.50
2022-08-01T10:18:16.795Z,3.65
2022-08-01T10:21:00.720Z,3.65
2022-08-01T10:23:41.112Z,3.83
2022-08-01T10:26:15.943Z,4.15
2022-08-01T10:28:51.806Z,4.15
2022-08-01T10:31:30.560Z,4.03
2022-08-01T10:34:02.651Z,4.07
2022-08-01T10:36:40.882Z,3.38
2022-08-01T10:39:20.049Z,3.00
2022-08-01T10:41:53.483Z,3.10
2022-08-01T10:49:56.022Z,3.60
2022-08-01T10:52:28.274Z,3.03
2022-08-01T11:08:27.495Z,3.20
2022-08-01T11:11:06.950Z,3.58
2022-08-01T11:14:09.402Z,3.85
2022-08-01T11:16:43.241Z,3.70
2022-08-01T11:19:15.611Z,3.33
2022-08-01T11:22:05.715Z,3.08
2022-08-01T11:25:04.259Z,3.25
2022-08-01T11:27:36.773Z,3.38
2022-08-01T11:30:31.434Z,3.28
2022-08-01T11:33:11.472Z,4.75
2022-08-01T11:36:42.587Z,4.40
2022-08-01T11:39:21.187Z,4.18
2022-08-01T11:41:55.666Z,4.25
2022-08-01T11:44:34.517Z,3.78
2022-08-01T11:47:11.609Z,3.97
2022-08-01T11:49:56.427Z,3.50
2022-08-01T11:52:43.524Z,3.78
2022-08-01T11:55:16.688Z,3.92
2022-08-01T11:57:49.983Z,3.70
2022-08-01T12:00:24.496Z,5.22
2022-08-01T12:03:04.439Z,5.05
2022-08-01T12:05:37.981Z,4.93
2022-08-01T12:08:13.783Z,4.90
2022-08-01T12:10:47.158Z,4.53
2022-08-01T12:13:22.526Z,4.60
2022-08-01T12:15:56.814Z,3.97
2022-08-01T12:18:27.245Z,3.38
2022-08-01T12:21:07.723Z,4.10
2022-08-01T12:23:38.021Z,3.72
2022-08-01T12:26:08.310Z,3.40
2022-08-01T12:29:01.138Z,3.42
2022-08-01T12:31:37.786Z,3.70
2022-08-01T12:34:29.810Z,3.80
2022-08-01T12:37:03.779Z,3.92
2022-08-01T12:39:40.132Z,3.58
2022-08-01T12:42:12.635Z,3.22
2022-08-01T12:44:50.097Z,3.33
2022-08-01T12:47:22.612Z,2.80
2022-08-01T12:49:53.912Z,2.95
2022-08-01T12:52:26.740Z,3.45
2022-08-01T12:55:18.622Z,2.78
2022-08-01T12:57:54.031Z,2.85
2022-08-01T13:00:30.259Z,2.70
2022-08-01T13:03:09.148Z,2.35
2022-08-01T13:05:52.199Z,2.17
2022-08-01T13:08:24.644Z,2.15
2022-08-01T13:11:07.765Z,2.65
2022-08-01T13:13:46.155Z,2.20
2022-08-01T13:16:30.854Z,2.05
2022-08-01T13:19:11.372Z,2.40
2022-08-01T13:21:52.876Z,2.35
2022-08-01T13:24:31.230Z,3.00
2022-08-01T13:27:06.325Z,3.13
2022-08-01T13:29:42.749Z,2.63
2022-08-01T13:32:27.701Z,3.10
2022-08-01T13:35:09.874Z,2.92
2022-08-01T13:37:42.025Z,3.28
2022-08-01T13:40:15.568Z,3.35
2022-08-01T13:42:46.585Z,3.10
2022-08-01T13:45:17.660Z,3.33
2022-08-01T13:48:11.726Z,2.95
2022-08-01T13:50:53.414Z,3.17
2022-08-01T13:53:38.279Z,3.00
2022-08-01T13:56:08.695Z,3.22
2022-08-01T13:58:38.867Z,3.40
2022-08-01T14:01:09.258Z,3.03
2022-08-01T14:03:42.558Z,3.40
2022-08-01T14:06:31.884Z,3.03
2022-08-01T14:09:02.417Z,2.85
2022-08-01T14:11:47.936Z,3.00
2022-08-01T14:14:18.189Z,3.00
2022-08-01T14:16:48.624Z,3.00
2022-08-01T14:19:36.862Z,2.67
2022-08-01T14:22:09.478Z,2.50
2022-08-01T14:24:39.924Z,2.55
2022-08-01T14:27:12.029Z,2.75
2022-08-01T14:30:03.119Z,2.30
2022-08-01T14:32:34.295Z,2.33
2022-08-01T14:35:09.991Z,2.63
2022-08-01T14:37:40.326Z,2.55
2022-08-01T14:40:12.662Z,2.17
2022-08-01T14:42:45.247Z,2.17
2022-08-01T14:45:16.964Z,2.00
2022-08-01T14:47:48.027Z,2.13
2022-08-01T14:50:20.871Z,2.15
2022-08-01T14:52:51.333Z,2.17
2022-08-01T14:55:24.510Z,2.35
2022-08-01T14:57:55.109Z,2.67
2022-08-01T15:00:25.782Z,2.30
2022-08-01T15:02:56.153Z,2.17
2022-08-01T15:05:29.883Z,2.17
2022-08-01T15:08:00.332Z,2.20
2022-08-01T15:10:33.136Z,2.50
2022-08-01T15:13:03.595Z,2.30
2022-08-01T15:15:33.858Z,2.47
2022-08-01T15:18:04.219Z,2.80
2022-08-01T15:20:37.063Z,2.33
2022-08-01T15:23:07.430Z,2.63
2022-08-01T15:25:40.352Z,2.20
2022-08-01T15:28:12.112Z,2.30
2022-08-01T15:30:43.261Z,2.10
2022-08-01T15:33:13.626Z,2.15
2022-08-01T15:35:46.910Z,2.08
2022-08-01T15:38:18.055Z,2.05
2022-08-01T15:40:48.247Z,2.10
2022-08-01T15:43:18.657Z,2.30
2022-08-01T15:45:49.507Z,2.20
2022-08-01T15:48:20.781Z,2.13
2022-08-01T15:50:53.890Z,2.08
2022-08-01T15:53:24.234Z,2.20
2022-08-01T15:55:54.323Z,1.90
2022-08-01T15:58:24.634Z,1.70
2022-08-01T16:00:54.919Z,1.80
2022-08-01T16:03:25.283Z,2.00
2022-08-01T16:05:59.028Z,1.90
2022-08-01T16:08:29.274Z,1.75
2022-08-01T16:10:59.387Z,2.00
2022-08-01T16:13:29.687Z,1.90
2022-08-01T16:15:59.988Z,1.75
2022-08-01T16:18:30.183Z,1.48
2022-08-01T16:21:03.274Z,1.75
2022-08-01T16:23:33.819Z,1.83
2022-08-01T16:26:03.950Z,1.92
2022-08-01T16:28:42.623Z,1.90
2022-08-01T16:31:20.234Z,2.05
2022-08-01T16:34:02.176Z,1.90
2022-08-01T16:36:35.669Z,2.15
2022-08-01T16:39:07.896Z,2.05
2022-08-01T16:41:38.132Z,2.30
2022-08-01T16:44:08.961Z,1.90
2022-08-01T16:46:39.156Z,1.80
2022-08-01T16:49:09.805Z,2.05
2022-08-01T16:51:48.289Z,2.20
2022-08-01T16:54:25.625Z,2.13
2022-08-01T16:57:03.145Z,2.17
2022-08-01T16:59:41.767Z,2.05
2022-08-01T17:02:13.594Z,2.13
2022-08-01T17:04:43.891Z,2.30
2022-08-01T17:07:16.686Z,2.20
2022-08-01T17:09:46.915Z,2.35
2022-08-01T17:12:22.546Z,2.53
2022-08-01T17:14:53.352Z,3.03
2022-08-01T17:17:23.747Z,2.10
2022-08-01T17:19:55.502Z,2.03
2022-08-01T17:22:28.296Z,2.40
2022-08-01T17:24:58.519Z,2.30
2022-08-01T17:27:28.710Z,2.40
2022-08-01T17:29:58.967Z,2.35
2022-08-01T17:32:29.181Z,2.47
2022-08-01T17:34:59.423Z,2.20
2022-08-01T17:37:32.226Z,2.30
2022-08-01T17:40:06.392Z,2.30
2022-08-01T17:42:52.669Z,2.17
2022-08-01T17:45:27.469Z,1.80
2022-08-01T17:47:58.569Z,2.50
2022-08-01T17:50:28.908Z,2.13
2022-08-01T17:53:01.795Z,2.38
2022-08-01T17:55:54.016Z,2.28
2022-08-01T17:58:33.748Z,2.40
2022-08-01T18:01:12.646Z,2.30
2022-08-01T18:03:42.976Z,2.20
2022-08-01T18:06:15.844Z,2.10
2022-08-01T18:08:49.274Z,2.35
2022-08-01T18:11:24.491Z,2.28
2022-08-01T18:13:55.507Z,1.95
2022-08-01T18:16:25.876Z,2.70
2022-08-01T18:18:56.185Z,2.40
2022-08-01T18:21:26.671Z,2.53
2022-08-01T18:24:09.650Z,2.30
2022-08-01T18:26:42.968Z,1.98
2022-08-01T18:29:13.545Z,2.08
2022-08-01T18:31:43.940Z,2.20
2022-08-01T18:34:14.757Z,1.88
2022-08-01T18:36:45.108Z,2.35
2022-08-01T18:39:18.033Z,2.13
2022-08-01T18:41:48.416Z,2.08
2022-08-01T18:44:18.684Z,2.03
2022-08-01T18:46:48.960Z,2.08
2022-08-01T18:49:20.407Z,1.90
2022-08-01T18:51:50.797Z,2.05
2022-08-01T18:54:24.352Z,2.17
2022-08-01T18:56:54.915Z,2.10
2022-08-01T18:59:25.179Z,2.03
2022-08-01T19:01:55.731Z,2.10
2022-08-01T19:04:25.873Z,2.30
2022-08-01T19:06:56.184Z,2.10
2022-08-01T19:09:29.106Z,1.90
2022-08-01T19:11:59.473Z,2.30
2022-08-01T19:14:29.611Z,2.13
2022-08-01T19:17:00.012Z,2.20
2022-08-01T19:19:30.355Z,2.00
2022-08-01T19:22:01.115Z,1.90
2022-08-01T19:24:33.851Z,2.10
2022-08-01T19:27:11.289Z,1.90
2022-08-01T19:29:42.987Z,2.10
2022-08-01T19:32:13.444Z,2.05
2022-08-01T19:34:57.270Z,2.20
2022-08-01T19:37:27.681Z,2.28
2022-08-01T19:40:01.610Z,2.03
2022-08-01T19:42:33.004Z,2.20
2022-08-01T19:45:05.485Z,2.15
2022-08-01T19:47:52.266Z,2.33
2022-08-01T19:50:28.450Z,2.10
2022-08-01T19:53:00.326Z,2.25
2022-08-01T19:55:39.211Z,2.20
2022-08-01T19:58:28.255Z,2.20
2022-08-01T20:00:59.536Z,2.50
2022-08-01T20:03:32.741Z,2.05
2022-08-01T20:06:05.263Z,2.22
2022-08-01T20:08:37.119Z,2.20
2022-08-01T20:11:13.746Z,2.30
2022-08-01T20:13:45.689Z,2.20
2022-08-01T20:16:15.888Z,2.05
2022-08-01T20:18:46.312Z,1.80
2022-08-01T20:21:17.483Z,1.90
2022-08-01T20:23:53.811Z,1.88
2022-08-01T20:26:40.831Z,2.08
2022-08-01T20:29:15.738Z,1.80
2022-08-01T20:31:50.372Z,2.00
2022-08-01T20:34:24.904Z,1.70
2022-08-01T20:36:56.806Z,1.73
2022-08-01T20:39:28.642Z,2.10
2022-08-01T20:42:04.139Z,1.92
2022-08-01T20:44:37.759Z,2.22
2022-08-01T20:47:08.751Z,1.85
2022-08-01T20:49:40.423Z,2.00
2022-08-01T20:52:12.004Z,1.70
2022-08-01T20:54:43.659Z,2.15
2022-08-01T20:57:25.495Z,1.88
2022-08-01T21:00:04.839Z,1.75
2022-08-01T21:02:52.034Z,2.10
2022-08-01T21:05:33.731Z,1.80
2022-08-01T21:08:10.580Z,2.20
2022-08-01T21:10:45.991Z,1.90
2022-08-01T21:13:32.850Z,1.80
2022-08-01T21:16:22.948Z,1.95
2022-08-01T21:22:10.114Z,1.60
2022-08-01T21:24:58.334Z,2.10
2022-08-01T21:27:32.810Z,2.28
2022-08-01T21:30:12.619Z,2.17
2022-08-01T21:32:46.581Z,2.20
2022-08-01T21:35:18.867Z,2.15
2022-08-01T21:37:52.460Z,2.67
2022-08-01T21:40:24.928Z,2.40
2022-08-01T21:42:57.347Z,2.92
2022-08-01T21:45:31.411Z,2.60
2022-08-01T21:48:02.820Z,2.55
2022-08-01T21:50:44.344Z,2.85
2022-08-01T21:53:32.117Z,3.00
2022-08-01T21:56:14.598Z,3.30
2022-08-01T21:58:55.049Z,3.25
2022-08-01T22:01:52.349Z,3.33
2022-08-01T22:04:36.454Z,3.15
2022-08-01T22:07:11.374Z,3.03
2022-08-01T22:09:47.018Z,2.78
2022-08-01T22:12:18.692Z,3.72
2022-08-01T22:14:56.637Z,3.17
2022-08-01T22:17:29.910Z,2.97
2022-08-01T22:20:00.386Z,2.90
2022-08-01T22:22:50.794Z,2.70
2022-08-01T22:25:24.944Z,3.33
2022-08-01T22:28:07.948Z,3.05
2022-08-01T22:30:44.547Z,3.30
2022-08-01T22:33:18.531Z,2.95
2022-08-01T22:35:52.808Z,3.13
2022-08-01T22:38:25.229Z,2.92
2022-08-01T22:41:03.825Z,3.45
2022-08-01T22:43:45.540Z,3.38
2022-08-01T22:46:30.654Z,3.28
2022-08-01T22:49:18.417Z,3.00
2022-08-01T22:52:00.659Z,3.10
2022-08-01T22:54:38.962Z,3.13
2022-08-01T22:57:15.233Z,3.17
2022-08-01T22:59:57.469Z,2.92
2022-08-01T23:02:31.150Z,3.10
2022-08-01T23:05:07.683Z,2.80
2022-08-01T23:07:45.439Z,3.03
2022-08-01T23:10:16.261Z,3.17
2022-08-01T23:12:48.691Z,2.95
2022-08-01T23:15:19.583Z,3.50
2022-08-01T23:17:52.644Z,3.25
2022-08-01T23:20:26.823Z,2.92
2022-08-01T23:23:18.555Z,3.25
2022-08-01T23:26:02.936Z,3.20
2022-08-01T23:28:33.427Z,3.13
2022-08-01T23:31:06.315Z,3.30
2022-08-01T23:33:36.702Z,3.08
2022-08-01T23:36:09.977Z,3.40
2022-08-01T23:38:40.408Z,3.10
2022-08-01T23:41:14.945Z,3.63
2022-08-01T23:43:51.989Z,3.60
2022-08-01T23:46:22.653Z,3.70
2022-08-01T23:48:53.023Z,3.80
2022-08-01T23:51:25.985Z,3.88
2022-08-01T23:53:56.345Z,3.75
2022-08-01T23:56:26.785Z,3.92
2022-08-01T23:58:57.207Z,3.65
